createdAt,value
2022-12-16T00:01:16.949Z,61.02
2022-12-16T00:03:50.421Z,60.85
2022-12-16T00:06:20.849Z,60.50
2022-12-16T00:08:48.730Z,60.42
2022-12-16T00:11:16.485Z,60.56
2022-12-16T00:13:44.423Z,60.66
2022-12-16T00:16:14.213Z,60.91
2022-12-16T00:18:42.050Z,61.17
2022-12-16T00:21:11.202Z,61.31
2022-12-16T00:23:41.595Z,61.35
2022-12-16T00:26:09.586Z,61.46
2022-12-16T00:28:38.005Z,61.44
2022-12-16T00:31:06.201Z,61.00
2022-12-16T00:33:34.457Z,61.10
2022-12-16T00:36:02.498Z,61.31
2022-12-16T00:38:31.888Z,61.59
2022-12-16T00:40:59.778Z,61.78
2022-12-16T00:43:27.533Z,61.28
2022-12-16T00:45:55.293Z,61.35
2022-12-16T00:48:23.961Z,60.98
2022-12-16T00:50:55.347Z,60.98
2022-12-16T00:53:24.571Z,60.92
2022-12-16T00:55:54.128Z,61.11
2022-12-16T00:58:21.850Z,61.14
2022-12-16T01:00:49.676Z,61.29
2022-12-16T01:03:21.805Z,61.44
2022-12-16T01:05:50.262Z,61.21
2022-12-16T01:08:18.294Z,60.93
2022-12-16T01:10:51.386Z,60.92
2022-12-16T01:13:21.895Z,60.85
2022-12-16T01:15:49.786Z,60.97
2022-12-16T01:18:18.663Z,60.78
2022-12-16T01:20:46.368Z,60.93
2022-12-16T01:23:14.037Z,61.00
2022-12-16T01:25:41.875Z,61.32
2022-12-16T01:28:10.188Z,61.10
2022-12-16T01:30:39.482Z,61.01
2022-12-16T01:33:07.203Z,61.19
2022-12-16T01:35:55.192Z,61.43
2022-12-16T01:38:23.823Z,61.24
2022-12-16T01:40:51.545Z,60.95
2022-12-16T01:43:24.339Z,60.14
2022-12-16T01:45:54.396Z,59.76
2022-12-16T01:48:40.010Z,59.58
2022-12-16T01:51:14.908Z,59.77
2022-12-16T01:53:43.924Z,59.45
2022-12-16T01:56:15.214Z,59.53
2022-12-16T01:58:45.007Z,59.54
2022-12-16T02:01:15.811Z,59.22
2022-12-16T02:03:43.824Z,59.20
2022-12-16T02:06:11.603Z,59.78
2022-12-16T02:08:39.362Z,60.02
2022-12-16T02:11:23.876Z,60.04
2022-12-16T02:14:07.586Z,60.25
2022-12-16T02:16:47.884Z,60.61
2022-12-16T02:19:40.158Z,60.75
2022-12-16T02:22:27.099Z,60.77
2022-12-16T02:25:26.132Z,60.53
2022-12-16T02:28:02.454Z,60.40
2022-12-16T02:30:46.027Z,60.86
2022-12-16T02:33:49.540Z,60.99
2022-12-16T02:36:31.357Z,60.72
2022-12-16T02:39:05.334Z,60.74
2022-12-16T02:41:43.790Z,60.79
2022-12-16T02:44:13.214Z,61.01
2022-12-16T02:46:44.645Z,61.22
2022-12-16T02:49:49.629Z,61.09
2022-12-16T02:52:20.231Z,61.21
2022-12-16T02:54:49.717Z,61.05
2022-12-16T02:57:30.692Z,61.14
2022-12-16T03:00:03.779Z,61.09
2022-12-16T03:02:40.173Z,60.98
2022-12-16T03:05:14.189Z,61.02
2022-12-16T03:07:44.093Z,61.20
2022-12-16T03:10:16.134Z,61.07
2022-12-16T03:12:46.505Z,61.25
2022-12-16T03:15:18.487Z,61.09
2022-12-16T03:17:50.360Z,61.29
2022-12-16T03:20:23.219Z,61.07
2022-12-16T03:22:55.544Z,61.28
2022-12-16T03:25:24.248Z,61.33
2022-12-16T03:27:57.028Z,61.36
2022-12-16T03:30:29.089Z,61.47
2022-12-16T03:33:03.400Z,61.84
2022-12-16T03:35:35.794Z,61.80
2022-12-16T03:38:06.420Z,61.72
2022-12-16T03:40:37.949Z,61.78
2022-12-16T03:43:06.852Z,61.89
2022-12-16T03:45:38.633Z,62.10
2022-12-16T03:48:10.698Z,61.92
2022-12-16T03:50:40.593Z,61.54
2022-12-16T03:53:08.779Z,61.74
2022-12-16T03:55:36.778Z,61.61
2022-12-16T03:58:04.539Z,61.81
2022-12-16T04:00:32.248Z,61.73
2022-12-16T04:03:00.154Z,61.33
2022-12-16T04:05:29.610Z,61.25
2022-12-16T04:08:01.740Z,61.61
2022-12-16T04:10:44.027Z,62.05
2022-12-16T04:13:29.792Z,61.82
2022-12-16T04:16:15.537Z,61.65
2022-12-16T04:19:03.212Z,61.51
2022-12-16T04:21:52.408Z,61.52
2022-12-16T04:24:22.435Z,61.54
2022-12-16T04:27:13.562Z,61.48
2022-12-16T04:29:57.185Z,61.39
2022-12-16T04:32:25.504Z,61.84
2022-12-16T04:34:52.385Z,61.76
2022-12-16T04:37:38.706Z,61.95
2022-12-16T04:40:24.469Z,61.44
2022-12-16T04:43:09.989Z,61.41
2022-12-16T04:45:55.431Z,61.59
2022-12-16T04:48:40.609Z,61.60
2022-12-16T04:51:25.886Z,61.61
2022-12-16T04:54:12.607Z,61.31
2022-12-16T04:56:57.895Z,61.24
2022-12-16T04:59:42.456Z,61.53
2022-12-16T05:02:27.979Z,61.61
2022-12-16T05:05:13.171Z,61.84
2022-12-16T05:08:10.034Z,62.11
2022-12-16T05:10:58.553Z,62.08
2022-12-16T05:13:43.965Z,62.38
2022-12-16T05:16:29.352Z,62.33
2022-12-16T05:19:14.602Z,62.47
2022-12-16T05:22:00.163Z,62.55
2022-12-16T05:24:49.780Z,62.41
2022-12-16T05:27:39.264Z,62.49
2022-12-16T05:30:40.240Z,62.58
2022-12-16T05:33:25.793Z,62.60
2022-12-16T05:36:13.121Z,62.51
2022-12-16T05:38:58.574Z,62.70
2022-12-16T05:41:44.146Z,62.73
2022-12-16T05:44:30.803Z,62.42
2022-12-16T05:47:16.379Z,62.61
2022-12-16T05:50:01.773Z,62.70
2022-12-16T05:52:47.151Z,62.41
2022-12-16T05:55:34.240Z,62.62
2022-12-16T05:58:19.378Z,62.89
2022-12-16T06:01:06.147Z,63.17
2022-12-16T06:03:51.517Z,63.07
2022-12-16T06:06:36.844Z,63.08
2022-12-16T06:09:22.748Z,62.94
2022-12-16T06:12:08.138Z,63.02
2022-12-16T06:14:53.590Z,62.96
2022-12-16T06:17:41.378Z,62.82
2022-12-16T06:20:27.193Z,62.71
2022-12-16T06:23:13.616Z,62.80
2022-12-16T06:25:59.326Z,63.09
2022-12-16T06:28:46.107Z,63.33
2022-12-16T06:31:31.703Z,63.81
2022-12-16T06:34:18.604Z,63.67
2022-12-16T06:37:03.742Z,63.62
2022-12-16T06:40:00.794Z,63.55
2022-12-16T06:42:46.096Z,63.77
2022-12-16T06:45:34.728Z,63.70
2022-12-16T06:48:20.475Z,63.48
2022-12-16T06:51:07.126Z,63.71
2022-12-16T06:53:52.405Z,63.99
2022-12-16T06:56:37.782Z,63.76
2022-12-16T06:59:23.134Z,63.95
2022-12-16T07:02:08.422Z,64.03
2022-12-16T07:04:53.597Z,63.69
2022-12-16T07:07:40.515Z,63.55
2022-12-16T07:10:26.300Z,63.50
2022-12-16T07:13:11.756Z,63.37
2022-12-16T07:15:57.203Z,63.47
2022-12-16T07:18:42.448Z,63.41
2022-12-16T07:21:27.782Z,63.36
2022-12-16T07:24:14.550Z,63.52
2022-12-16T07:27:00.635Z,63.31
2022-12-16T07:29:45.838Z,63.26
2022-12-16T07:32:31.103Z,63.23
2022-12-16T07:35:16.573Z,63.34
2022-12-16T07:38:01.957Z,62.87
2022-12-16T07:40:48.674Z,62.76
2022-12-16T07:43:34.475Z,62.28
2022-12-16T07:46:20.003Z,62.34
2022-12-16T07:49:05.047Z,62.50
2022-12-16T07:51:55.810Z,61.99
2022-12-16T07:54:41.288Z,62.05
2022-12-16T07:57:27.709Z,62.28
2022-12-16T08:00:12.188Z,62.68
2022-12-16T08:02:57.862Z,63.46
2022-12-16T08:05:43.390Z,63.58
2022-12-16T08:08:28.729Z,63.27
2022-12-16T08:11:14.119Z,62.96
2022-12-16T08:14:00.776Z,62.69
2022-12-16T08:16:46.181Z,62.44
2022-12-16T08:19:31.349Z,62.02
2022-12-16T08:22:16.947Z,61.64
2022-12-16T08:25:02.235Z,61.74
2022-12-16T08:27:47.269Z,61.78
2022-12-16T08:30:34.460Z,61.79
2022-12-16T08:33:20.059Z,62.28
2022-12-16T08:36:05.967Z,62.14
2022-12-16T08:38:51.314Z,62.12
2022-12-16T08:41:36.506Z,62.27
2022-12-16T08:44:21.911Z,61.40
2022-12-16T08:47:08.554Z,61.33
2022-12-16T08:49:56.230Z,62.12
2022-12-16T08:52:45.064Z,62.10
2022-12-16T08:55:30.467Z,62.36
2022-12-16T08:58:15.777Z,62.23
2022-12-16T09:01:06.572Z,62.44
2022-12-16T09:03:53.882Z,62.00
2022-12-16T09:06:40.909Z,61.49
2022-12-16T09:09:26.624Z,61.29
2022-12-16T09:12:12.024Z,60.92
2022-12-16T09:14:57.559Z,60.65
2022-12-16T09:17:43.484Z,60.40
2022-12-16T09:20:30.320Z,60.42
2022-12-16T09:23:15.622Z,60.09
2022-12-16T09:26:01.078Z,60.00
2022-12-16T09:28:46.100Z,59.95
2022-12-16T09:31:31.559Z,59.66
2022-12-16T09:34:16.628Z,60.14
2022-12-16T09:37:03.392Z,60.24
2022-12-16T09:39:48.734Z,60.29
2022-12-16T09:42:47.241Z,59.77
2022-12-16T09:45:39.631Z,60.03
2022-12-16T09:48:31.534Z,59.82
2022-12-16T09:51:21.071Z,59.60
2022-12-16T09:54:11.077Z,59.85
2022-12-16T09:56:56.336Z,59.50
2022-12-16T09:59:47.129Z,59.55
2022-12-16T10:02:36.219Z,59.18
2022-12-16T10:05:28.178Z,59.16
2022-12-16T10:08:19.238Z,58.03
2022-12-16T10:11:14.863Z,55.90
2022-12-16T10:14:07.243Z,53.65
2022-12-16T10:17:15.213Z,51.55
2022-12-16T10:20:09.332Z,51.60
2022-12-16T10:23:00.857Z,52.59
2022-12-16T10:25:53.181Z,53.81
2022-12-16T10:28:48.735Z,54.05
2022-12-16T10:31:35.689Z,49.46
2022-12-16T10:34:21.878Z,47.52
2022-12-16T10:37:13.236Z,45.95
2022-12-16T10:40:07.551Z,45.67
2022-12-16T10:42:59.378Z,45.43
2022-12-16T10:45:53.069Z,44.05
2022-12-16T10:48:51.185Z,41.14
2022-12-16T10:51:43.436Z,39.23
2022-12-16T10:54:44.323Z,38.94
2022-12-16T10:57:37.610Z,40.44
2022-12-16T11:00:32.121Z,42.47
2022-12-16T11:03:36.829Z,42.43
2022-12-16T11:06:22.767Z,41.93
2022-12-16T11:09:08.144Z,41.83
2022-12-16T11:11:53.427Z,41.47
2022-12-16T11:14:59.560Z,39.27
2022-12-16T11:17:48.124Z,38.28
2022-12-16T11:20:38.455Z,36.61
2022-12-16T11:23:36.428Z,36.18
2022-12-16T11:26:36.314Z,36.55
2022-12-16T11:29:25.108Z,38.24
2022-12-16T11:32:16.557Z,40.32
2022-12-16T11:35:04.934Z,42.29
2022-12-16T11:37:53.187Z,44.54
2022-12-16T11:40:40.243Z,46.32
2022-12-16T11:43:26.024Z,47.96
2022-12-16T11:46:12.492Z,49.16
2022-12-16T11:49:02.812Z,50.31
2022-12-16T11:51:54.480Z,51.18
2022-12-16T11:55:03.675Z,52.00
2022-12-16T11:58:01.767Z,52.21
2022-12-16T12:00:47.938Z,52.74
2022-12-16T12:03:39.967Z,53.48
2022-12-16T12:06:36.575Z,53.60
2022-12-16T12:09:26.860Z,53.74
2022-12-16T12:12:22.288Z,54.61
2022-12-16T12:15:11.608Z,54.73
2022-12-16T12:18:03.937Z,55.37
2022-12-16T12:21:00.977Z,55.79
2022-12-16T12:23:58.038Z,56.17
2022-12-16T12:26:48.495Z,56.34
2022-12-16T12:29:41.112Z,56.77
2022-12-16T12:32:43.633Z,56.69
2022-12-16T12:35:48.252Z,57.11
2022-12-16T12:38:38.558Z,57.25
2022-12-16T12:41:30.419Z,57.05
2022-12-16T12:44:24.896Z,57.51
2022-12-16T12:47:15.902Z,57.61
2022-12-16T12:50:12.820Z,57.50
2022-12-16T12:53:23.302Z,57.85
2022-12-16T12:56:20.790Z,57.93
2022-12-16T12:59:12.916Z,58.40
2022-12-16T13:02:01.412Z,59.01
2022-12-16T13:04:51.296Z,59.33
2022-12-16T13:07:45.620Z,59.38
2022-12-16T13:10:50.731Z,58.56
2022-12-16T13:14:03.351Z,58.90
2022-12-16T13:17:25.927Z,58.85
2022-12-16T13:20:18.670Z,58.58
2022-12-16T13:23:05.383Z,58.82
2022-12-16T13:26:03.570Z,59.41
2022-12-16T13:28:53.313Z,58.66
2022-12-16T13:31:39.087Z,58.82
2022-12-16T13:34:38.853Z,58.59
2022-12-16T13:37:35.683Z,58.97
2022-12-16T13:40:21.608Z,59.26
2022-12-16T13:43:10.331Z,59.44
2022-12-16T13:46:01.394Z,59.55
2022-12-16T13:48:56.365Z,59.52
2022-12-16T13:52:18.547Z,59.20
2022-12-16T13:55:11.292Z,59.06
2022-12-16T13:58:01.237Z,58.90
2022-12-16T14:00:48.241Z,59.32
2022-12-16T14:03:38.781Z,59.05
2022-12-16T14:06:30.628Z,58.80
2022-12-16T14:09:16.655Z,58.97
2022-12-16T14:12:08.490Z,59.37
2022-12-16T14:15:04.491Z,59.37
2022-12-16T14:17:57.978Z,59.63
2022-12-16T14:20:47.899Z,59.95
2022-12-16T14:23:57.597Z,59.73
2022-12-16T14:26:44.353Z,59.85
2022-12-16T14:29:38.996Z,59.65
2022-12-16T14:32:37.999Z,59.63
2022-12-16T14:35:30.440Z,59.22
2022-12-16T14:38:16.788Z,59.51
2022-12-16T14:41:07.950Z,59.05
2022-12-16T14:43:53.152Z,58.96
2022-12-16T14:46:47.228Z,58.93
2022-12-16T14:49:39.730Z,58.86
2022-12-16T14:52:35.810Z,58.85
2022-12-16T14:55:38.797Z,59.04
2022-12-16T14:58:28.630Z,59.36
2022-12-16T15:01:17.080Z,59.23
2022-12-16T15:04:06.132Z,59.03
2022-12-16T15:06:54.833Z,59.00
2022-12-16T15:09:56.802Z,58.91
2022-12-16T15:13:03.554Z,58.96
2022-12-16T15:15:51.425Z,59.19
2022-12-16T15:18:40.072Z,59.02
2022-12-16T15:21:33.054Z,58.90
2022-12-16T15:24:18.795Z,58.85
2022-12-16T15:27:04.043Z,59.12
2022-12-16T15:29:53.236Z,59.33
2022-12-16T15:32:50.273Z,59.31
2022-12-16T15:35:48.901Z,59.46
2022-12-16T15:38:47.095Z,59.56
2022-12-16T15:41:41.066Z,59.37
2022-12-16T15:44:33.848Z,59.65
2022-12-16T15:47:30.735Z,59.93
2022-12-16T15:50:16.182Z,60.27
2022-12-16T15:53:02.678Z,60.42
2022-12-16T15:55:52.454Z,60.46
2022-12-16T15:58:41.292Z,60.44
2022-12-16T16:01:27.306Z,60.64
2022-12-16T16:04:15.006Z,60.83
2022-12-16T16:07:03.467Z,61.17
2022-12-16T16:09:52.917Z,61.27
2022-12-16T16:12:43.401Z,61.38
2022-12-16T16:15:30.467Z,61.37
2022-12-16T16:18:19.114Z,61.42
2022-12-16T16:21:04.576Z,61.31
2022-12-16T16:24:01.363Z,61.24
2022-12-16T16:26:46.925Z,61.09
2022-12-16T16:29:33.617Z,61.08
2022-12-16T16:32:20.099Z,61.07
2022-12-16T16:35:05.376Z,61.09
2022-12-16T16:37:50.740Z,60.94
2022-12-16T16:40:40.709Z,61.11
2022-12-16T16:43:27.076Z,61.21
2022-12-16T16:46:14.276Z,61.26
2022-12-16T16:49:00.069Z,61.56
2022-12-16T16:51:45.835Z,61.55
2022-12-16T16:54:31.237Z,61.51
2022-12-16T16:57:18.775Z,62.09
2022-12-16T17:00:04.057Z,62.66
2022-12-16T17:02:52.951Z,62.58
2022-12-16T17:05:38.563Z,62.85
2022-12-16T17:08:24.259Z,62.90
2022-12-16T17:11:09.753Z,63.12
2022-12-16T17:13:55.049Z,63.02
2022-12-16T17:16:40.519Z,63.47
2022-12-16T17:19:27.072Z,63.42
2022-12-16T17:22:08.713Z,63.04
2022-12-16T17:24:54.702Z,63.33
2022-12-16T17:27:42.403Z,63.67
2022-12-16T17:30:33.948Z,63.99
2022-12-16T17:33:19.352Z,64.20
2022-12-16T17:36:09.043Z,64.12
2022-12-16T17:38:54.479Z,64.35
2022-12-16T17:41:39.887Z,63.98
2022-12-16T17:44:25.334Z,63.71
2022-12-16T17:47:10.692Z,63.41
2022-12-16T17:49:52.372Z,63.40
2022-12-16T17:52:41.956Z,63.49
2022-12-16T17:55:28.379Z,63.60
2022-12-16T17:58:13.746Z,63.56
2022-12-16T18:00:59.160Z,63.90
2022-12-16T18:03:44.701Z,63.61
2022-12-16T18:06:29.812Z,63.35
2022-12-16T18:09:16.509Z,63.65
2022-12-16T18:12:01.912Z,64.08
2022-12-16T18:14:47.185Z,64.38
2022-12-16T18:17:32.665Z,64.85
2022-12-16T18:20:18.001Z,64.91
2022-12-16T18:23:03.362Z,64.98
2022-12-16T18:25:52.232Z,65.18
2022-12-16T18:28:37.515Z,64.86
2022-12-16T18:31:23.869Z,64.79
2022-12-16T18:34:09.399Z,65.11
2022-12-16T18:37:06.527Z,65.07
2022-12-16T18:39:52.104Z,65.43
2022-12-16T18:42:38.794Z,65.51
2022-12-16T18:45:24.839Z,65.49
2022-12-16T18:48:10.579Z,65.35
2022-12-16T18:50:56.308Z,65.69
2022-12-16T18:53:41.966Z,65.34
2022-12-16T18:56:28.463Z,65.35
2022-12-16T18:59:15.519Z,65.45
2022-12-16T19:02:01.254Z,65.73
2022-12-16T19:04:47.156Z,65.93
2022-12-16T19:07:33.907Z,66.10
2022-12-16T19:10:19.550Z,65.29
2022-12-16T19:13:05.051Z,65.04
2022-12-16T19:15:51.796Z,65.33
2022-12-16T19:18:37.464Z,65.56
2022-12-16T19:21:23.028Z,65.37
2022-12-16T19:24:09.302Z,65.11
2022-12-16T19:26:56.443Z,65.02
2022-12-16T19:29:59.873Z,64.57
2022-12-16T19:32:46.454Z,64.98
2022-12-16T19:35:31.773Z,65.40
2022-12-16T19:38:17.365Z,65.40
2022-12-16T19:41:09.510Z,65.52
2022-12-16T19:43:58.725Z,65.92
2022-12-16T19:46:47.135Z,65.51
2022-12-16T19:49:33.726Z,65.48
2022-12-16T19:52:19.077Z,65.86
2022-12-16T19:55:04.484Z,66.00
2022-12-16T19:57:49.947Z,65.99
2022-12-16T20:00:35.342Z,66.35
2022-12-16T20:03:21.034Z,66.19
2022-12-16T20:06:21.390Z,66.41
2022-12-16T20:09:08.768Z,66.17
2022-12-16T20:11:54.692Z,66.07
2022-12-16T20:14:41.237Z,65.65
2022-12-16T20:17:27.623Z,65.54
2022-12-16T20:20:13.657Z,65.50
2022-12-16T20:23:00.364Z,65.13
2022-12-16T20:25:47.292Z,64.73
2022-12-16T20:28:32.726Z,64.37
2022-12-16T20:31:19.228Z,64.17
2022-12-16T20:34:04.602Z,63.91
2022-12-16T20:36:50.115Z,63.90
2022-12-16T20:39:36.651Z,64.21
2022-12-16T20:42:22.006Z,64.39
2022-12-16T20:45:07.285Z,64.74
2022-12-16T20:47:52.669Z,64.56
2022-12-16T20:50:41.354Z,64.27
2022-12-16T20:53:26.713Z,64.25
2022-12-16T20:56:13.327Z,63.67
2022-12-16T20:58:59.585Z,62.90
2022-12-16T21:04:49.927Z,62.08
2022-12-16T21:07:35.237Z,61.50
2022-12-16T21:10:20.590Z,61.92
2022-12-16T21:13:07.314Z,62.62
2022-12-16T21:15:52.625Z,63.26
2022-12-16T21:18:41.820Z,62.96
2022-12-16T21:21:27.584Z,63.58
2022-12-16T21:24:12.825Z,63.90
2022-12-16T21:26:58.226Z,63.95
2022-12-16T21:29:45.138Z,64.28
2022-12-16T21:32:30.451Z,64.40
2022-12-16T21:35:16.091Z,64.05
2022-12-16T21:38:02.187Z,63.21
2022-12-16T21:40:47.772Z,63.10
2022-12-16T21:43:34.416Z,63.16
2022-12-16T21:46:23.345Z,63.35
2022-12-16T21:49:08.619Z,63.18
2022-12-16T21:51:56.222Z,62.82
2022-12-16T21:54:41.648Z,63.92
2022-12-16T21:57:26.895Z,64.31
2022-12-16T22:00:12.085Z,64.79
2022-12-16T22:02:58.806Z,64.28
2022-12-16T22:05:44.453Z,63.99
2022-12-16T22:08:29.089Z,63.52
2022-12-16T22:11:14.466Z,63.28
2022-12-16T22:13:59.879Z,63.30
2022-12-16T22:16:45.201Z,63.56
2022-12-16T22:19:31.759Z,63.84
2022-12-16T22:22:17.185Z,63.62
2022-12-16T22:25:02.325Z,63.89
2022-12-16T22:27:47.727Z,63.60
2022-12-16T22:30:32.935Z,63.32
2022-12-16T22:33:18.242Z,63.23
2022-12-16T22:36:04.952Z,63.39
2022-12-16T22:38:50.771Z,63.57
2022-12-16T22:41:37.529Z,63.98
2022-12-16T22:44:23.400Z,64.91
2022-12-16T22:47:08.619Z,64.84
2022-12-16T22:49:58.001Z,64.78
2022-12-16T22:52:44.630Z,64.95
2022-12-16T22:55:30.002Z,64.37
2022-12-16T22:58:17.620Z,64.32
2022-12-16T23:01:17.508Z,64.25
2022-12-16T23:04:02.541Z,64.16
2022-12-16T23:06:48.161Z,63.83
2022-12-16T23:09:34.770Z,63.75
2022-12-16T23:12:20.371Z,63.93
2022-12-16T23:15:05.476Z,64.12
2022-12-16T23:17:50.792Z,64.34
2022-12-16T23:20:37.295Z,64.61
2022-12-16T23:23:22.697Z,64.25
2022-12-16T23:26:15.144Z,64.00
2022-12-16T23:29:00.673Z,64.44
2022-12-16T23:31:46.076Z,64.84
2022-12-16T23:34:31.387Z,64.39
2022-12-16T23:37:16.844Z,63.96
2022-12-16T23:40:02.285Z,64.10
2022-12-16T23:42:48.913Z,64.07
2022-12-16T23:45:34.333Z,64.14
2022-12-16T23:48:20.609Z,64.22
2022-12-16T23:51:06.064Z,64.12
2022-12-16T23:53:56.419Z,64.16
2022-12-16T23:56:42.422Z,64.28
2022-12-16T23:59:29.623Z,64.57
